Terminal Aerodrome Forecast
Issued by NWS Charleston, WV

Current Version | Previous Version | Graphics & Text | Print | Product List | Glossary On
Versions: 1 2 3 4 5 6 7 8 9 10 11 12 13 14 15 16 17 18 19 20 21 22 23 24 25 26 27 28 29
000
FTUS41 KRLX 190700 AAA
TAFBKW
TAF AMD
KBKW 190713Z 1907/2006 00000KT 4SM BR BKN002
      TEMPO 1907/1909 2SM BR BKN008
     FM190900 00000KT 2SM BR BKN003
      TEMPO 1909/1913 1/4SM FG VV001
     FM191400 VRB03KT 1SM BR SCT001 BKN008
     FM191500 VRB03KT 4SM BR BKN008
     FM191600 30004KT 6SM HZ BKN012
     FM191900 31005KT 6SM BR VCTS BKN025CB
     FM192100 27005KT P6SM VCTS BKN035CB=

USA.gov is the U.S. government's official web portal to all federal, state and local government web resources and services.